createdAt,value
2018-11-29T00:00:31.745Z,3.50
2018-11-29T00:02:59.647Z,4.10
2018-11-29T00:05:27.519Z,3.63
2018-11-29T00:07:55.402Z,3.90
2018-11-29T00:10:23.341Z,4.10
2018-11-29T00:12:51.275Z,3.80
2018-11-29T00:15:19.196Z,3.87
2018-11-29T00:17:47.032Z,3.97
2018-11-29T00:20:16.489Z,4.20
2018-11-29T00:22:45.072Z,4.13
2018-11-29T00:25:13.997Z,4.20
2018-11-29T00:27:42.032Z,4.40
2018-11-29T00:30:15.391Z,4.37
2018-11-29T00:32:43.376Z,4.43
2018-11-29T00:35:12.198Z,4.50
2018-11-29T00:37:40.384Z,4.40
2018-11-29T00:40:12.320Z,4.60
2018-11-29T00:42:55.972Z,4.57
2018-11-29T00:45:24.215Z,4.13
2018-11-29T00:47:52.296Z,4.33
2018-11-29T00:50:20.443Z,4.30
2018-11-29T00:52:49.260Z,4.10
2018-11-29T00:55:22.135Z,4.40
2018-11-29T00:57:50.702Z,4.50
2018-11-29T01:00:20.498Z,4.13
2018-11-29T01:02:50.092Z,4.10
2018-11-29T01:05:18.194Z,3.67
2018-11-29T01:07:46.279Z,4.00
2018-11-29T01:10:16.087Z,3.80
2018-11-29T01:12:44.642Z,3.47
2018-11-29T01:15:16.615Z,3.20
2018-11-29T01:17:45.519Z,3.47
2018-11-29T01:20:14.418Z,3.10
2018-11-29T01:22:43.229Z,3.30
2018-11-29T01:25:13.075Z,3.93
2018-11-29T01:27:41.818Z,2.93
2018-11-29T01:30:13.421Z,3.23
2018-11-29T01:32:41.389Z,3.10
2018-11-29T01:35:10.887Z,3.10
2018-11-29T01:37:39.032Z,2.80
2018-11-29T01:40:10.250Z,3.30
2018-11-29T01:42:38.310Z,2.73
2018-11-29T01:45:06.312Z,2.80
2018-11-29T01:47:34.212Z,3.00
2018-11-29T01:50:02.224Z,2.63
2018-11-29T01:52:30.223Z,2.80
2018-11-29T01:54:58.187Z,3.03
2018-11-29T01:57:26.180Z,2.83
2018-11-29T01:59:54.852Z,2.30
2018-11-29T02:02:22.822Z,2.83
2018-11-29T02:04:50.734Z,2.63
2018-11-29T02:07:18.926Z,2.90
2018-11-29T02:09:46.874Z,2.40
2018-11-29T02:12:15.412Z,2.40
2018-11-29T02:14:43.311Z,2.50
2018-11-29T02:17:11.472Z,2.67
2018-11-29T02:19:39.408Z,2.43
2018-11-29T02:22:07.511Z,2.83
2018-11-29T02:24:35.422Z,2.20
2018-11-29T02:27:03.446Z,2.70
2018-11-29T02:29:31.332Z,2.93
2018-11-29T02:31:59.359Z,2.60
2018-11-29T02:34:27.342Z,2.30
2018-11-29T02:36:55.382Z,2.40
2018-11-29T02:39:23.289Z,2.43
2018-11-29T02:41:51.270Z,2.37
2018-11-29T02:44:19.242Z,2.37
2018-11-29T02:46:47.221Z,2.50
2018-11-29T02:49:15.182Z,2.03
2018-11-29T02:51:44.066Z,2.47
2018-11-29T02:54:15.491Z,2.60
2018-11-29T02:56:43.465Z,2.20
2018-11-29T02:59:11.428Z,2.13
2018-11-29T03:01:39.422Z,2.20
2018-11-29T03:04:09.102Z,2.33
2018-11-29T03:06:37.102Z,2.20
2018-11-29T03:09:05.923Z,2.10
2018-11-29T03:11:33.976Z,2.40
2018-11-29T03:14:02.066Z,2.30
2018-11-29T03:16:29.990Z,2.23
2018-11-29T03:18:57.898Z,2.40
2018-11-29T03:21:28.578Z,1.90
2018-11-29T03:23:56.566Z,2.30
2018-11-29T03:26:24.501Z,2.30
2018-11-29T03:28:53.684Z,2.10
2018-11-29T03:31:22.066Z,2.23
2018-11-29T03:33:49.995Z,2.20
2018-11-29T03:36:17.991Z,2.20
2018-11-29T03:38:45.993Z,2.00
2018-11-29T03:41:13.983Z,2.30
2018-11-29T03:43:41.969Z,2.37
2018-11-29T03:46:09.876Z,2.10
2018-11-29T03:48:37.876Z,1.80
2018-11-29T03:51:05.901Z,2.40
2018-11-29T03:53:36.535Z,2.10
2018-11-29T03:56:04.893Z,2.20
2018-11-29T03:58:34.210Z,2.10
2018-11-29T04:01:02.962Z,1.90
2018-11-29T04:03:30.947Z,2.20
2018-11-29T04:05:59.043Z,2.33
2018-11-29T04:08:27.015Z,2.43
2018-11-29T04:10:55.097Z,2.30
2018-11-29T04:13:23.007Z,2.50
2018-11-29T04:15:50.960Z,2.60
2018-11-29T04:18:18.960Z,2.90
2018-11-29T04:20:46.989Z,2.50
2018-11-29T04:23:14.987Z,2.57
2018-11-29T04:25:42.910Z,2.70
2018-11-29T04:28:10.874Z,2.23
2018-11-29T04:30:38.884Z,2.30
2018-11-29T04:33:07.529Z,2.77
2018-11-29T04:35:35.445Z,2.60
2018-11-29T04:38:03.466Z,2.33
2018-11-29T04:40:31.373Z,2.60
2018-11-29T04:42:59.869Z,2.33
2018-11-29T04:45:39.653Z,2.70
2018-11-29T04:48:10.091Z,2.70
2018-11-29T04:50:35.695Z,2.40
2018-11-29T04:53:03.653Z,2.23
2018-11-29T04:55:32.511Z,2.83
2018-11-29T04:58:00.409Z,2.50
2018-11-29T05:00:28.382Z,2.60
2018-11-29T05:02:56.951Z,2.50
2018-11-29T05:05:24.965Z,3.03
2018-11-29T05:07:53.066Z,2.57
2018-11-29T05:10:21.125Z,2.70
2018-11-29T05:12:49.057Z,2.80
2018-11-29T05:15:17.439Z,2.83
2018-11-29T05:17:45.394Z,2.60
2018-11-29T05:20:13.326Z,2.83
2018-11-29T05:22:41.273Z,2.97
2018-11-29T05:25:09.241Z,2.70
2018-11-29T05:27:37.795Z,2.67
2018-11-29T05:30:11.075Z,2.77
2018-11-29T05:32:38.995Z,2.50
2018-11-29T05:35:08.504Z,2.70
2018-11-29T05:37:37.410Z,2.87
2018-11-29T05:40:07.527Z,2.37
2018-11-29T05:42:35.557Z,2.40
2018-11-29T05:45:03.727Z,2.50
2018-11-29T05:47:32.152Z,2.30
2018-11-29T05:50:00.212Z,2.40
2018-11-29T05:52:28.210Z,2.60
2018-11-29T05:54:56.031Z,2.73
2018-11-29T05:57:23.911Z,3.27
2018-11-29T05:59:51.749Z,2.53
2018-11-29T06:02:19.571Z,2.70
2018-11-29T06:04:50.194Z,2.57
2018-11-29T06:07:18.155Z,2.80
2018-11-29T06:09:46.026Z,2.93
2018-11-29T06:12:13.802Z,2.83
2018-11-29T06:14:42.781Z,3.00
2018-11-29T06:17:10.679Z,2.97
2018-11-29T06:19:38.459Z,3.20
2018-11-29T06:22:06.476Z,2.80
2018-11-29T06:24:35.693Z,2.97
2018-11-29T06:27:03.519Z,3.00
2018-11-29T06:29:31.321Z,2.60
2018-11-29T06:31:59.158Z,3.10
2018-11-29T06:34:26.984Z,3.17
2018-11-29T06:36:54.948Z,3.07
2018-11-29T06:39:22.797Z,2.63
2018-11-29T06:41:50.777Z,3.07
2018-11-29T06:44:18.643Z,2.97
2018-11-29T06:46:46.926Z,2.83
2018-11-29T06:49:15.333Z,3.07
2018-11-29T06:51:43.300Z,3.20
2018-11-29T06:54:11.126Z,3.13
2018-11-29T06:56:40.168Z,3.33
2018-11-29T06:59:07.972Z,3.27
2018-11-29T07:01:36.002Z,3.00
2018-11-29T07:04:04.275Z,3.13
2018-11-29T07:06:32.158Z,3.20
2018-11-29T07:08:59.986Z,3.17
2018-11-29T07:11:27.969Z,3.20
2018-11-29T07:13:55.960Z,3.30
2018-11-29T07:16:23.772Z,3.30
2018-11-29T07:18:51.808Z,3.40
2018-11-29T07:21:30.928Z,3.30
2018-11-29T07:23:58.802Z,3.57
2018-11-29T07:26:27.828Z,3.17
2018-11-29T07:28:55.733Z,3.33
2018-11-29T07:31:23.546Z,3.53
2018-11-29T07:33:51.398Z,3.40
2018-11-29T07:36:19.229Z,3.67
2018-11-29T07:38:47.790Z,3.63
2018-11-29T07:41:15.628Z,3.80
2018-11-29T07:43:43.470Z,3.67
2018-11-29T07:46:11.414Z,3.90
2018-11-29T07:48:39.381Z,3.70
2018-11-29T07:51:07.423Z,3.83
2018-11-29T07:53:35.340Z,3.10
2018-11-29T07:56:03.243Z,4.00
2018-11-29T07:58:31.066Z,3.33
2018-11-29T08:00:59.019Z,3.20
2018-11-29T08:03:26.930Z,3.30
2018-11-29T08:05:54.926Z,3.10
2018-11-29T08:08:22.750Z,3.00
2018-11-29T08:10:50.606Z,3.57
2018-11-29T08:13:18.505Z,3.10
2018-11-29T08:15:46.376Z,3.20
2018-11-29T08:18:14.217Z,3.10
2018-11-29T08:20:42.141Z,2.80
2018-11-29T08:23:09.990Z,3.00
2018-11-29T08:25:37.797Z,2.93
2018-11-29T08:28:05.671Z,3.33
2018-11-29T08:30:33.838Z,4.70
2018-11-29T08:33:01.676Z,4.60
2018-11-29T08:35:29.619Z,3.77
2018-11-29T08:37:57.504Z,3.50
2018-11-29T08:40:25.845Z,3.47
2018-11-29T08:42:53.821Z,3.60
2018-11-29T08:45:21.757Z,3.23
2018-11-29T08:47:49.608Z,3.80
2018-11-29T08:50:17.509Z,3.30
2018-11-29T08:52:45.906Z,3.60
2018-11-29T08:55:15.829Z,3.77
2018-11-29T08:57:45.673Z,4.03
2018-11-29T09:00:15.424Z,3.00
2018-11-29T09:02:43.282Z,4.10
2018-11-29T09:05:12.043Z,3.40
2018-11-29T09:07:39.974Z,3.20
2018-11-29T09:10:10.521Z,3.77
2018-11-29T09:12:38.421Z,3.70
2018-11-29T09:15:13.998Z,4.07
2018-11-29T09:17:41.956Z,4.20
2018-11-29T09:20:12.217Z,3.27
2018-11-29T09:22:40.253Z,2.80
2018-11-29T09:25:09.678Z,3.07
2018-11-29T09:27:37.776Z,3.27
2018-11-29T09:30:14.889Z,2.77
2018-11-29T09:32:43.192Z,3.07
2018-11-29T09:35:11.126Z,2.90
2018-11-29T09:37:38.974Z,2.97
2018-11-29T09:40:10.801Z,2.70
2018-11-29T09:42:39.136Z,3.10
2018-11-29T09:45:15.860Z,3.17
2018-11-29T09:47:44.698Z,2.97
2018-11-29T09:50:13.564Z,2.73
2018-11-29T09:52:41.547Z,3.20
2018-11-29T09:55:10.926Z,2.90
2018-11-29T09:57:38.727Z,3.37
2018-11-29T10:00:16.715Z,2.73
2018-11-29T10:02:46.556Z,2.80
2018-11-29T10:05:20.153Z,2.60
2018-11-29T10:07:48.085Z,2.63
2018-11-29T10:10:15.887Z,2.87
2018-11-29T10:12:44.350Z,2.97
2018-11-29T10:15:13.210Z,2.70
2018-11-29T10:17:41.054Z,2.67
2018-11-29T10:20:10.386Z,2.67
2018-11-29T10:22:39.861Z,3.00
2018-11-29T10:25:10.216Z,3.00
2018-11-29T10:27:38.100Z,3.10
2018-11-29T10:31:12.226Z,2.90
2018-11-29T10:33:40.041Z,2.80
2018-11-29T10:36:07.892Z,2.50
2018-11-29T10:38:35.704Z,2.53
2018-11-29T10:41:03.648Z,2.33
2018-11-29T10:43:31.470Z,2.63
2018-11-29T10:46:02.956Z,2.80
2018-11-29T10:48:30.822Z,2.20
2018-11-29T10:50:58.670Z,2.27
2018-11-29T10:53:27.360Z,2.33
2018-11-29T10:56:02.328Z,2.33
2018-11-29T10:58:30.908Z,2.03
2018-11-29T11:01:04.463Z,2.03
2018-11-29T11:03:33.004Z,2.10
2018-11-29T11:06:01.935Z,2.10
2018-11-29T11:08:29.860Z,2.13
2018-11-29T11:10:59.512Z,2.10
2018-11-29T11:13:28.015Z,1.90
2018-11-29T11:15:55.968Z,1.83
2018-11-29T11:18:23.748Z,1.97
2018-11-29T11:20:51.580Z,2.10
2018-11-29T11:23:19.464Z,1.90
2018-11-29T11:25:47.265Z,2.00
2018-11-29T11:28:15.174Z,1.83
2018-11-29T11:30:44.072Z,2.10
2018-11-29T11:33:11.968Z,1.80
2018-11-29T11:35:39.777Z,1.63
2018-11-29T11:38:07.633Z,1.83
2018-11-29T11:40:35.444Z,2.10
2018-11-29T11:43:05.392Z,2.20
2018-11-29T11:45:32.118Z,2.10
2018-11-29T11:48:03.184Z,2.20
2018-11-29T11:50:27.847Z,2.30
2018-11-29T11:52:55.994Z,2.13
2018-11-29T11:55:30.056Z,2.00
2018-11-29T11:57:51.978Z,2.03
2018-11-29T12:00:21.929Z,2.20
2018-11-29T12:02:55.929Z,2.10
2018-11-29T12:05:23.969Z,2.00
2018-11-29T12:07:51.852Z,2.30
2018-11-29T12:10:19.978Z,2.20
2018-11-29T12:12:47.932Z,2.47
2018-11-29T12:15:15.752Z,2.00
2018-11-29T12:17:44.646Z,2.37
2018-11-29T12:20:19.788Z,2.10
2018-11-29T12:22:47.790Z,2.30
2018-11-29T12:25:22.254Z,1.93
2018-11-29T12:27:50.859Z,2.30
2018-11-29T12:30:34.788Z,2.13
2018-11-29T12:33:03.867Z,2.50
2018-11-29T12:35:31.804Z,2.57
2018-11-29T12:37:59.651Z,2.50
2018-11-29T12:40:27.573Z,3.40
2018-11-29T12:42:55.521Z,2.93
2018-11-29T12:45:23.365Z,2.50
2018-11-29T12:47:51.199Z,2.20
2018-11-29T12:50:22.326Z,2.33
2018-11-29T12:52:51.357Z,2.43
2018-11-29T12:55:20.376Z,2.00
2018-11-29T12:58:04.536Z,2.10
2018-11-29T13:00:20.977Z,2.27
2018-11-29T13:02:49.954Z,1.90
2018-11-29T13:05:18.047Z,2.00
2018-11-29T13:07:45.874Z,2.00
2018-11-29T13:10:16.080Z,2.00
2018-11-29T13:12:43.964Z,2.13
2018-11-29T13:15:14.093Z,2.13
2018-11-29T13:17:41.992Z,2.27
2018-11-29T13:20:12.763Z,1.90
2018-11-29T13:22:40.594Z,2.23
2018-11-29T13:25:13.495Z,2.70
2018-11-29T13:27:42.075Z,2.50
2018-11-29T13:30:13.951Z,2.03
2018-11-29T13:32:42.399Z,2.50
2018-11-29T13:35:15.208Z,3.30
2018-11-29T13:37:44.666Z,3.20
2018-11-29T13:40:12.535Z,2.90
2018-11-29T13:42:40.461Z,3.07
2018-11-29T13:45:10.495Z,2.90
2018-11-29T13:47:38.651Z,3.20
2018-11-29T13:50:11.771Z,2.90
2018-11-29T13:52:39.518Z,3.03
2018-11-29T13:55:08.614Z,3.40
2018-11-29T13:57:36.433Z,2.63
2018-11-29T14:00:06.761Z,2.87
2018-11-29T14:02:34.555Z,2.60
2018-11-29T14:05:02.497Z,2.40
2018-11-29T14:07:30.343Z,3.40
2018-11-29T14:09:58.525Z,2.60
2018-11-29T14:12:26.405Z,2.80
2018-11-29T14:14:54.307Z,2.77
2018-11-29T14:17:22.197Z,2.50
2018-11-29T14:19:50.073Z,2.97
2018-11-29T14:22:17.985Z,2.50
2018-11-29T14:24:45.913Z,2.53
2018-11-29T14:27:13.893Z,2.80
2018-11-29T14:29:41.741Z,2.30
2018-11-29T14:32:10.366Z,2.33
2018-11-29T14:34:38.193Z,2.70
2018-11-29T14:37:06.361Z,2.13
2018-11-29T14:39:34.295Z,2.37
2018-11-29T14:42:02.259Z,2.53
2018-11-29T14:44:30.136Z,2.40
2018-11-29T14:46:58.060Z,2.20
2018-11-29T14:49:25.876Z,2.30
2018-11-29T14:51:53.832Z,2.30
2018-11-29T14:54:26.731Z,2.40
2018-11-29T14:56:54.588Z,2.13
2018-11-29T14:59:22.433Z,2.87
2018-11-29T15:01:50.359Z,2.20
2018-11-29T15:04:18.233Z,2.40
2018-11-29T15:06:47.153Z,2.30
2018-11-29T15:09:14.971Z,2.80
2018-11-29T15:11:42.870Z,3.20
2018-11-29T15:14:10.830Z,2.50
2018-11-29T15:16:38.811Z,4.37
2018-11-29T15:19:06.711Z,2.93
2018-11-29T15:21:34.737Z,3.30
2018-11-29T15:24:02.598Z,2.60
2018-11-29T15:26:30.429Z,3.13
2018-11-29T15:28:58.313Z,3.20
2018-11-29T15:31:26.309Z,3.03
2018-11-29T15:33:54.171Z,3.10
2018-11-29T15:36:21.986Z,2.80
2018-11-29T15:38:53.154Z,2.77
2018-11-29T15:41:21.002Z,3.50
2018-11-29T15:43:48.883Z,2.87
2018-11-29T15:46:17.512Z,2.87
2018-11-29T15:48:45.429Z,2.77
2018-11-29T15:51:13.313Z,2.90
2018-11-29T15:53:41.237Z,2.97
2018-11-29T15:56:09.126Z,3.30
2018-11-29T15:58:37.099Z,3.40
2018-11-29T16:01:05.207Z,3.87
2018-11-29T16:03:33.078Z,2.33
2018-11-29T16:06:01.178Z,2.50
2018-11-29T16:08:29.116Z,2.50
2018-11-29T16:10:57.043Z,3.50
2018-11-29T16:13:25.041Z,2.77
2018-11-29T16:15:53.006Z,2.40
2018-11-29T16:18:21.537Z,3.07
2018-11-29T16:20:49.491Z,2.87
2018-11-29T16:23:18.272Z,2.70
2018-11-29T16:25:46.287Z,2.40
2018-11-29T16:28:14.340Z,2.40
2018-11-29T16:30:48.823Z,2.50
2018-11-29T16:33:21.627Z,2.90
2018-11-29T16:35:49.500Z,2.97
2018-11-29T16:38:17.447Z,7.20
2018-11-29T16:40:45.466Z,2.93
2018-11-29T16:43:13.374Z,3.20
2018-11-29T16:45:41.271Z,3.10
2018-11-29T16:48:09.198Z,2.80
2018-11-29T16:50:37.651Z,3.13
2018-11-29T16:53:06.158Z,2.93
2018-11-29T16:55:34.034Z,2.93
2018-11-29T16:58:03.712Z,2.93
2018-11-29T17:00:31.684Z,2.70
2018-11-29T17:02:59.784Z,3.40
2018-11-29T17:05:31.153Z,2.70
2018-11-29T17:07:59.054Z,3.30
2018-11-29T17:10:26.908Z,2.83
2018-11-29T17:12:56.473Z,3.03
2018-11-29T17:15:25.398Z,2.90
2018-11-29T17:17:54.250Z,3.30
2018-11-29T17:20:22.276Z,3.40
2018-11-29T17:22:51.127Z,3.40
2018-11-29T17:25:19.180Z,3.20
2018-11-29T17:27:47.201Z,3.00
2018-11-29T17:30:18.259Z,2.70
2018-11-29T17:32:46.848Z,3.00
2018-11-29T17:35:14.627Z,2.80
2018-11-29T17:37:44.292Z,2.60
2018-11-29T17:40:14.084Z,2.67
2018-11-29T17:42:42.180Z,2.83
2018-11-29T17:45:11.468Z,2.90
2018-11-29T17:47:40.562Z,2.77
2018-11-29T17:50:13.928Z,3.10
2018-11-29T17:52:42.273Z,3.10
2018-11-29T17:55:12.218Z,2.60
2018-11-29T17:57:40.136Z,2.67
2018-11-29T18:00:17.833Z,2.70
2018-11-29T18:02:45.833Z,3.00
2018-11-29T18:05:13.828Z,3.40
2018-11-29T18:07:41.783Z,2.60
2018-11-29T18:10:11.342Z,2.70
2018-11-29T18:12:39.242Z,3.00
2018-11-29T18:15:18.183Z,2.80
2018-11-29T18:17:46.168Z,2.57
2018-11-29T18:20:15.116Z,2.67
2018-11-29T18:22:43.291Z,2.80
2018-11-29T18:25:12.564Z,2.73
2018-11-29T18:27:43.121Z,2.90
2018-11-29T18:30:13.121Z,3.00
2018-11-29T18:32:41.226Z,2.93
2018-11-29T18:35:11.236Z,2.80
2018-11-29T18:37:39.999Z,2.93
2018-11-29T18:40:21.578Z,2.90
2018-11-29T18:42:54.741Z,2.73
2018-11-29T18:45:26.765Z,2.57
2018-11-29T18:47:56.189Z,2.97
2018-11-29T18:50:26.356Z,3.43
2018-11-29T18:52:54.450Z,2.90
2018-11-29T18:55:23.403Z,3.00
2018-11-29T18:57:51.819Z,3.30
2018-11-29T19:00:26.771Z,3.30
2018-11-29T19:02:57.176Z,3.13
2018-11-29T19:05:22.779Z,2.97
2018-11-29T19:07:50.859Z,2.97
2018-11-29T19:10:19.281Z,3.33
2018-11-29T19:15:14.817Z,3.17
2018-11-29T19:17:42.678Z,3.47
2018-11-29T19:20:11.714Z,3.37
2018-11-29T19:22:40.037Z,3.10
2018-11-29T19:25:15.946Z,4.03
2018-11-29T19:27:44.004Z,3.23
2018-11-29T19:30:25.398Z,3.77
2018-11-29T19:32:59.014Z,3.20
2018-11-29T19:35:27.169Z,4.20
2018-11-29T19:37:55.484Z,5.30
2018-11-29T19:40:23.370Z,4.23
2018-11-29T19:42:51.359Z,4.77
2018-11-29T19:45:20.370Z,3.57
2018-11-29T19:47:48.336Z,2.77
2018-11-29T19:50:18.170Z,3.40
2018-11-29T19:52:47.657Z,2.90
2018-11-29T19:55:19.090Z,3.27
2018-11-29T19:57:46.715Z,3.17
2018-11-29T20:00:14.837Z,3.70
2018-11-29T20:02:43.847Z,3.40
2018-11-29T20:05:12.377Z,3.10
2018-11-29T20:07:40.280Z,3.50
2018-11-29T20:10:16.235Z,3.40
2018-11-29T20:12:44.915Z,3.10
2018-11-29T20:15:18.104Z,3.80
2018-11-29T20:17:46.162Z,3.13
2018-11-29T20:20:14.129Z,3.20
2018-11-29T20:22:42.210Z,3.50
2018-11-29T20:25:13.346Z,3.40
2018-11-29T20:27:41.379Z,3.87
2018-11-29T20:30:13.707Z,3.70
2018-11-29T20:32:41.682Z,3.43
2018-11-29T20:35:10.175Z,3.57
2018-11-29T20:37:38.323Z,3.07
2018-11-29T20:43:23.365Z,3.40
2018-11-29T20:45:52.651Z,3.37
2018-11-29T20:48:25.097Z,2.87
2018-11-29T20:50:54.096Z,3.17
2018-11-29T20:53:25.874Z,3.60
2018-11-29T20:55:54.017Z,3.40
2018-11-29T20:58:21.965Z,3.37
2018-11-29T21:00:51.601Z,3.43
2018-11-29T21:03:19.486Z,3.50
2018-11-29T21:05:47.494Z,3.57
2018-11-29T21:08:15.488Z,3.00
2018-11-29T21:10:43.347Z,3.00
2018-11-29T21:13:11.234Z,3.30
2018-11-29T21:15:41.507Z,3.50
2018-11-29T21:18:11.613Z,3.17
2018-11-29T21:20:40.544Z,3.07
2018-11-29T21:23:10.696Z,3.40
2018-11-29T21:25:38.573Z,2.80
2018-11-29T21:28:07.110Z,3.23
2018-11-29T21:30:35.128Z,3.10
2018-11-29T21:33:03.132Z,2.83
2018-11-29T21:35:31.012Z,3.10
2018-11-29T21:37:59.023Z,2.53
2018-11-29T21:40:29.288Z,2.80
2018-11-29T21:42:57.279Z,3.30
2018-11-29T21:45:25.263Z,2.77
2018-11-29T21:47:53.142Z,3.13
2018-11-29T21:50:21.094Z,2.97
2018-11-29T21:52:49.358Z,3.10
2018-11-29T21:55:21.646Z,3.23
2018-11-29T21:57:50.781Z,2.77
2018-11-29T22:00:21.804Z,3.00
2018-11-29T22:02:54.098Z,2.63
2018-11-29T22:05:22.852Z,2.70
2018-11-29T22:07:50.818Z,3.07
2018-11-29T22:10:18.779Z,2.90
2018-11-29T22:12:46.717Z,2.63
2018-11-29T22:15:18.135Z,2.73
2018-11-29T22:18:23.882Z,2.57
2018-11-29T22:20:58.952Z,2.73
2018-11-29T22:23:26.725Z,2.40
2018-11-29T22:25:55.958Z,2.90
2018-11-29T22:28:23.833Z,3.10
2018-11-29T22:30:51.803Z,2.70
2018-11-29T22:33:19.667Z,2.73
2018-11-29T22:35:47.639Z,2.50
2018-11-29T22:38:15.520Z,2.57
2018-11-29T22:40:43.433Z,2.70
2018-11-29T22:43:11.383Z,2.67
2018-11-29T22:45:39.380Z,2.50
2018-11-29T22:48:07.783Z,3.20
2018-11-29T22:50:35.637Z,2.63
2018-11-29T22:53:03.552Z,2.57
2018-11-29T22:55:31.451Z,2.63
2018-11-29T22:57:59.320Z,2.60
2018-11-29T23:00:31.852Z,3.03
2018-11-29T23:03:00.076Z,2.70
2018-11-29T23:05:28.037Z,2.67
2018-11-29T23:07:56.410Z,2.53
2018-11-29T23:10:25.069Z,2.57
2018-11-29T23:12:52.991Z,2.80
2018-11-29T23:15:20.922Z,3.00
2018-11-29T23:17:48.801Z,2.70
2018-11-29T23:20:16.633Z,2.97
2018-11-29T23:22:44.490Z,2.60
2018-11-29T23:25:13.797Z,2.70
2018-11-29T23:27:41.800Z,3.03
2018-11-29T23:30:11.927Z,3.20
2018-11-29T23:32:40.753Z,2.53
2018-11-29T23:35:08.695Z,2.80
2018-11-29T23:37:36.685Z,2.70
2018-11-29T23:40:06.732Z,2.90
2018-11-29T23:42:34.613Z,2.50
2018-11-29T23:45:02.623Z,2.57
2018-11-29T23:47:30.435Z,3.00
2018-11-29T23:49:58.278Z,2.93
2018-11-29T23:52:26.123Z,2.87
2018-11-29T23:54:57.414Z,2.80
2018-11-29T23:57:25.406Z,2.67
2018-11-29T23:59:53.220Z,2.83
